sensor_id;sensor_type;location;lat;lon;timestamp;P1;durP1;ratioP1;P2;durP2;ratioP2
9248;SDS011;4660;41.768;26.198;2023-11-19T00:01:35;2.30;;;2.03;;
9248;SDS011;4660;41.768;26.198;2023-11-19T00:04:01;1.30;;;1.20;;
9248;SDS011;4660;41.768;26.198;2023-11-19T00:06:26;3.73;;;1.10;;
9248;SDS011;4660;41.768;26.198;2023-11-19T00:08:52;3.00;;;1.20;;
9248;SDS011;4660;41.768;26.198;2023-11-19T00:11:18;1.40;;;1.00;;
9248;SDS011;4660;41.768;26.198;2023-11-19T00:13:43;1.33;;;1.23;;
9248;SDS011;4660;41.768;26.198;2023-11-19T00:16:09;2.23;;;1.00;;
9248;SDS011;4660;41.768;26.198;2023-11-19T00:18:35;0.90;;;0.90;;
9248;SDS011;4660;41.768;26.198;2023-11-19T00:21:04;1.13;;;1.03;;
9248;SDS011;4660;41.768;26.198;2023-11-19T00:23:30;0.83;;;0.83;;
9248;SDS011;4660;41.768;26.198;2023-11-19T00:25:56;1.43;;;0.90;;
9248;SDS011;4660;41.768;26.198;2023-11-19T00:28:21;1.17;;;0.90;;
9248;SDS011;4660;41.768;26.198;2023-11-19T00:30:47;1.00;;;1.00;;
9248;SDS011;4660;41.768;26.198;2023-11-19T00:33:12;1.70;;;1.10;;
9248;SDS011;4660;41.768;26.198;2023-11-19T00:35:38;0.87;;;0.80;;
9248;SDS011;4660;41.768;26.198;2023-11-19T00:38:03;0.80;;;0.80;;
9248;SDS011;4660;41.768;26.198;2023-11-19T00:40:29;1.30;;;1.20;;
9248;SDS011;4660;41.768;26.198;2023-11-19T00:42:54;1.33;;;0.90;;
9248;SDS011;4660;41.768;26.198;2023-11-19T00:45:20;0.97;;;0.90;;
9248;SDS011;4660;41.768;26.198;2023-11-19T00:47:46;1.07;;;0.80;;
9248;SDS011;4660;41.768;26.198;2023-11-19T00:50:11;0.90;;;0.90;;
9248;SDS011;4660;41.768;26.198;2023-11-19T00:52:38;0.70;;;0.70;;
9248;SDS011;4660;41.768;26.198;2023-11-19T00:55:04;0.70;;;0.70;;
9248;SDS011;4660;41.768;26.198;2023-11-19T00:57:30;0.80;;;0.80;;
9248;SDS011;4660;41.768;26.198;2023-11-19T00:59:58;1.33;;;0.93;;
9248;SDS011;4660;41.768;26.198;2023-11-19T01:02:24;0.80;;;0.80;;
9248;SDS011;4660;41.768;26.198;2023-11-19T01:04:50;1.10;;;1.00;;
9248;SDS011;4660;41.768;26.198;2023-11-19T01:07:16;0.70;;;0.70;;
9248;SDS011;4660;41.768;26.198;2023-11-19T01:09:42;0.80;;;0.70;;
9248;SDS011;4660;41.768;26.198;2023-11-19T01:12:08;0.60;;;0.60;;
9248;SDS011;4660;41.768;26.198;2023-11-19T01:14:35;2.73;;;0.80;;
9248;SDS011;4660;41.768;26.198;2023-11-19T01:17:01;0.57;;;0.57;;
9248;SDS011;4660;41.768;26.198;2023-11-19T01:19:27;0.60;;;0.60;;
9248;SDS011;4660;41.768;26.198;2023-11-19T01:21:53;0.80;;;0.80;;
9248;SDS011;4660;41.768;26.198;2023-11-19T01:24:19;0.60;;;0.60;;
9248;SDS011;4660;41.768;26.198;2023-11-19T01:26:45;0.60;;;0.60;;
9248;SDS011;4660;41.768;26.198;2023-11-19T01:29:12;0.57;;;0.57;;
9248;SDS011;4660;41.768;26.198;2023-11-19T01:31:45;0.87;;;0.80;;
9248;SDS011;4660;41.768;26.198;2023-11-19T01:34:16;0.50;;;0.50;;
9248;SDS011;4660;41.768;26.198;2023-11-19T01:36:41;0.63;;;0.63;;
9248;SDS011;4660;41.768;26.198;2023-11-19T01:39:07;0.50;;;0.50;;
9248;SDS011;4660;41.768;26.198;2023-11-19T01:41:35;0.50;;;0.50;;
9248;SDS011;4660;41.768;26.198;2023-11-19T01:44:01;0.50;;;0.50;;
9248;SDS011;4660;41.768;26.198;2023-11-19T01:46:27;0.50;;;0.50;;
9248;SDS011;4660;41.768;26.198;2023-11-19T01:48:53;0.50;;;0.50;;
9248;SDS011;4660;41.768;26.198;2023-11-19T01:51:20;0.50;;;0.50;;
9248;SDS011;4660;41.768;26.198;2023-11-19T01:53:47;0.60;;;0.60;;
9248;SDS011;4660;41.768;26.198;2023-11-19T01:56:13;0.60;;;0.60;;
9248;SDS011;4660;41.768;26.198;2023-11-19T01:58:40;0.50;;;0.50;;
9248;SDS011;4660;41.768;26.198;2023-11-19T02:01:09;11.07;;;0.80;;
9248;SDS011;4660;41.768;26.198;2023-11-19T02:03:36;0.50;;;0.50;;
9248;SDS011;4660;41.768;26.198;2023-11-19T02:06:02;0.50;;;0.50;;
9248;SDS011;4660;41.768;26.198;2023-11-19T02:08:29;0.53;;;0.53;;
9248;SDS011;4660;41.768;26.198;2023-11-19T02:10:55;0.50;;;0.50;;
9248;SDS011;4660;41.768;26.198;2023-11-19T02:13:23;0.60;;;0.60;;
9248;SDS011;4660;41.768;26.198;2023-11-19T02:15:50;0.60;;;0.60;;
9248;SDS011;4660;41.768;26.198;2023-11-19T02:18:34;0.67;;;0.60;;
9248;SDS011;4660;41.768;26.198;2023-11-19T02:20:59;0.40;;;0.40;;
9248;SDS011;4660;41.768;26.198;2023-11-19T02:23:26;0.60;;;0.60;;
9248;SDS011;4660;41.768;26.198;2023-11-19T02:26:02;0.60;;;0.60;;
9248;SDS011;4660;41.768;26.198;2023-11-19T02:28:35;0.67;;;0.67;;
9248;SDS011;4660;41.768;26.198;2023-11-19T02:31:02;1.70;;;0.70;;
9248;SDS011;4660;41.768;26.198;2023-11-19T02:33:30;0.70;;;0.70;;
9248;SDS011;4660;41.768;26.198;2023-11-19T02:35:55;0.67;;;0.67;;
9248;SDS011;4660;41.768;26.198;2023-11-19T02:38:21;0.60;;;0.60;;
9248;SDS011;4660;41.768;26.198;2023-11-19T02:40:47;0.70;;;0.70;;
9248;SDS011;4660;41.768;26.198;2023-11-19T02:43:14;0.60;;;0.60;;
9248;SDS011;4660;41.768;26.198;2023-11-19T02:45:40;0.80;;;0.80;;
9248;SDS011;4660;41.768;26.198;2023-11-19T02:48:05;0.70;;;0.70;;
9248;SDS011;4660;41.768;26.198;2023-11-19T02:50:31;1.10;;;1.10;;
9248;SDS011;4660;41.768;26.198;2023-11-19T02:52:57;1.33;;;1.20;;
9248;SDS011;4660;41.768;26.198;2023-11-19T02:55:23;0.77;;;0.77;;
9248;SDS011;4660;41.768;26.198;2023-11-19T02:57:49;0.80;;;0.80;;
9248;SDS011;4660;41.768;26.198;2023-11-19T03:00:19;0.83;;;0.83;;
9248;SDS011;4660;41.768;26.198;2023-11-19T03:02:53;0.77;;;0.77;;
9248;SDS011;4660;41.768;26.198;2023-11-19T03:05:25;1.40;;;0.87;;
9248;SDS011;4660;41.768;26.198;2023-11-19T03:07:52;0.97;;;0.97;;
9248;SDS011;4660;41.768;26.198;2023-11-19T03:10:17;0.70;;;0.70;;
9248;SDS011;4660;41.768;26.198;2023-11-19T03:12:44;0.90;;;0.90;;
9248;SDS011;4660;41.768;26.198;2023-11-19T03:15:10;1.10;;;1.00;;
9248;SDS011;4660;41.768;26.198;2023-11-19T03:17:40;2.80;;;1.00;;
9248;SDS011;4660;41.768;26.198;2023-11-19T03:20:07;0.90;;;0.90;;
9248;SDS011;4660;41.768;26.198;2023-11-19T03:22:40;1.00;;;1.00;;
9248;SDS011;4660;41.768;26.198;2023-11-19T03:25:09;1.67;;;1.00;;
9248;SDS011;4660;41.768;26.198;2023-11-19T03:27:36;1.97;;;1.30;;
9248;SDS011;4660;41.768;26.198;2023-11-19T03:30:04;0.97;;;0.97;;
9248;SDS011;4660;41.768;26.198;2023-11-19T03:32:31;1.20;;;1.00;;
9248;SDS011;4660;41.768;26.198;2023-11-19T03:34:57;1.57;;;1.00;;
9248;SDS011;4660;41.768;26.198;2023-11-19T03:37:23;1.13;;;1.03;;
9248;SDS011;4660;41.768;26.198;2023-11-19T03:39:49;2.20;;;1.10;;
9248;SDS011;4660;41.768;26.198;2023-11-19T03:42:14;1.27;;;1.07;;
9248;SDS011;4660;41.768;26.198;2023-11-19T03:44:40;0.80;;;0.80;;
9248;SDS011;4660;41.768;26.198;2023-11-19T03:47:05;1.20;;;1.07;;
9248;SDS011;4660;41.768;26.198;2023-11-19T03:49:31;1.30;;;0.90;;
9248;SDS011;4660;41.768;26.198;2023-11-19T03:51:57;0.80;;;0.80;;
9248;SDS011;4660;41.768;26.198;2023-11-19T03:54:22;1.03;;;0.93;;
9248;SDS011;4660;41.768;26.198;2023-11-19T03:56:48;4.60;;;0.80;;
9248;SDS011;4660;41.768;26.198;2023-11-19T03:59:14;1.00;;;1.00;;
9248;SDS011;4660;41.768;26.198;2023-11-19T04:01:40;1.27;;;1.17;;
9248;SDS011;4660;41.768;26.198;2023-11-19T04:04:06;0.80;;;0.80;;
9248;SDS011;4660;41.768;26.198;2023-11-19T04:06:32;0.90;;;0.90;;
9248;SDS011;4660;41.768;26.198;2023-11-19T04:08:57;0.80;;;0.80;;
9248;SDS011;4660;41.768;26.198;2023-11-19T04:11:23;1.47;;;1.00;;
9248;SDS011;4660;41.768;26.198;2023-11-19T04:13:48;0.90;;;0.90;;
9248;SDS011;4660;41.768;26.198;2023-11-19T04:16:14;1.53;;;0.90;;
9248;SDS011;4660;41.768;26.198;2023-11-19T04:18:40;1.17;;;0.80;;
9248;SDS011;4660;41.768;26.198;2023-11-19T04:21:07;1.10;;;1.00;;
9248;SDS011;4660;41.768;26.198;2023-11-19T04:23:33;1.00;;;0.90;;
9248;SDS011;4660;41.768;26.198;2023-11-19T04:26:01;0.90;;;0.90;;
9248;SDS011;4660;41.768;26.198;2023-11-19T04:28:27;2.90;;;1.87;;
9248;SDS011;4660;41.768;26.198;2023-11-19T04:30:52;1.60;;;1.20;;
9248;SDS011;4660;41.768;26.198;2023-11-19T04:33:18;1.33;;;1.07;;
9248;SDS011;4660;41.768;26.198;2023-11-19T04:35:44;1.63;;;1.10;;
9248;SDS011;4660;41.768;26.198;2023-11-19T04:38:09;0.70;;;0.70;;
9248;SDS011;4660;41.768;26.198;2023-11-19T04:40:35;1.80;;;1.10;;
9248;SDS011;4660;41.768;26.198;2023-11-19T04:43:01;0.70;;;0.70;;
9248;SDS011;4660;41.768;26.198;2023-11-19T04:45:26;0.83;;;0.83;;
9248;SDS011;4660;41.768;26.198;2023-11-19T04:47:52;0.73;;;0.73;;
9248;SDS011;4660;41.768;26.198;2023-11-19T04:50:17;1.00;;;0.90;;
9248;SDS011;4660;41.768;26.198;2023-11-19T04:52:43;0.80;;;0.80;;
9248;SDS011;4660;41.768;26.198;2023-11-19T04:55:12;1.00;;;1.00;;
9248;SDS011;4660;41.768;26.198;2023-11-19T04:57:39;0.90;;;0.90;;
9248;SDS011;4660;41.768;26.198;2023-11-19T05:00:05;1.10;;;1.00;;
9248;SDS011;4660;41.768;26.198;2023-11-19T05:02:33;1.10;;;1.10;;
9248;SDS011;4660;41.768;26.198;2023-11-19T05:05:05;0.80;;;0.80;;
9248;SDS011;4660;41.768;26.198;2023-11-19T05:07:31;0.90;;;0.90;;
9248;SDS011;4660;41.768;26.198;2023-11-19T05:09:57;0.83;;;0.77;;
9248;SDS011;4660;41.768;26.198;2023-11-19T05:12:23;1.23;;;1.10;;
9248;SDS011;4660;41.768;26.198;2023-11-19T05:14:49;0.80;;;0.80;;
9248;SDS011;4660;41.768;26.198;2023-11-19T05:17:17;0.70;;;0.70;;
9248;SDS011;4660;41.768;26.198;2023-11-19T05:19:43;0.77;;;0.77;;
9248;SDS011;4660;41.768;26.198;2023-11-19T05:22:09;1.37;;;0.90;;
9248;SDS011;4660;41.768;26.198;2023-11-19T05:24:35;1.00;;;1.00;;
9248;SDS011;4660;41.768;26.198;2023-11-19T05:27:01;1.90;;;1.00;;
9248;SDS011;4660;41.768;26.198;2023-11-19T05:29:27;2.20;;;0.87;;
9248;SDS011;4660;41.768;26.198;2023-11-19T05:31:53;0.70;;;0.70;;
9248;SDS011;4660;41.768;26.198;2023-11-19T05:34:20;0.90;;;0.90;;
9248;SDS011;4660;41.768;26.198;2023-11-19T05:36:46;2.17;;;1.80;;
9248;SDS011;4660;41.768;26.198;2023-11-19T05:39:13;1.17;;;1.07;;
9248;SDS011;4660;41.768;26.198;2023-11-19T05:41:38;0.87;;;0.87;;
9248;SDS011;4660;41.768;26.198;2023-11-19T05:44:04;1.33;;;1.10;;
9248;SDS011;4660;41.768;26.198;2023-11-19T05:46:30;1.50;;;1.20;;
9248;SDS011;4660;41.768;26.198;2023-11-19T05:48:55;1.20;;;1.10;;
9248;SDS011;4660;41.768;26.198;2023-11-19T05:51:21;1.13;;;1.03;;
9248;SDS011;4660;41.768;26.198;2023-11-19T05:53:49;1.70;;;1.60;;
9248;SDS011;4660;41.768;26.198;2023-11-19T05:56:15;1.27;;;1.17;;
9248;SDS011;4660;41.768;26.198;2023-11-19T05:58:46;1.23;;;1.13;;
9248;SDS011;4660;41.768;26.198;2023-11-19T06:01:13;1.80;;;1.20;;
9248;SDS011;4660;41.768;26.198;2023-11-19T06:03:39;1.90;;;1.63;;
9248;SDS011;4660;41.768;26.198;2023-11-19T06:06:04;1.63;;;1.33;;
9248;SDS011;4660;41.768;26.198;2023-11-19T06:08:31;1.37;;;1.27;;
9248;SDS011;4660;41.768;26.198;2023-11-19T06:10:57;1.27;;;1.17;;
9248;SDS011;4660;41.768;26.198;2023-11-19T06:13:23;1.47;;;1.30;;
9248;SDS011;4660;41.768;26.198;2023-11-19T06:15:50;1.30;;;1.20;;
9248;SDS011;4660;41.768;26.198;2023-11-19T06:18:16;1.30;;;1.20;;
9248;SDS011;4660;41.768;26.198;2023-11-19T06:20:45;1.30;;;1.20;;
9248;SDS011;4660;41.768;26.198;2023-11-19T06:23:11;1.30;;;1.20;;
9248;SDS011;4660;41.768;26.198;2023-11-19T06:25:38;1.60;;;1.30;;
9248;SDS011;4660;41.768;26.198;2023-11-19T06:28:03;1.80;;;1.23;;
9248;SDS011;4660;41.768;26.198;2023-11-19T06:30:30;1.30;;;1.20;;
9248;SDS011;4660;41.768;26.198;2023-11-19T06:32:57;2.33;;;1.23;;
9248;SDS011;4660;41.768;26.198;2023-11-19T06:35:24;1.30;;;1.20;;
9248;SDS011;4660;41.768;26.198;2023-11-19T06:37:50;1.73;;;1.23;;
9248;SDS011;4660;41.768;26.198;2023-11-19T06:40:16;2.33;;;1.37;;
9248;SDS011;4660;41.768;26.198;2023-11-19T06:42:42;2.40;;;1.27;;
9248;SDS011;4660;41.768;26.198;2023-11-19T06:45:08;1.20;;;1.10;;
9248;SDS011;4660;41.768;26.198;2023-11-19T06:47:35;0.97;;;0.97;;
9248;SDS011;4660;41.768;26.198;2023-11-19T06:50:01;1.40;;;1.30;;
9248;SDS011;4660;41.768;26.198;2023-11-19T06:52:30;1.40;;;1.30;;
9248;SDS011;4660;41.768;26.198;2023-11-19T06:54:57;1.33;;;1.23;;
9248;SDS011;4660;41.768;26.198;2023-11-19T06:57:23;1.63;;;1.53;;
9248;SDS011;4660;41.768;26.198;2023-11-19T06:59:49;1.90;;;1.70;;
9248;SDS011;4660;41.768;26.198;2023-11-19T07:02:15;1.70;;;1.60;;
9248;SDS011;4660;41.768;26.198;2023-11-19T07:04:40;2.20;;;1.80;;
9248;SDS011;4660;41.768;26.198;2023-11-19T07:07:06;2.13;;;1.93;;
9248;SDS011;4660;41.768;26.198;2023-11-19T07:09:32;2.13;;;1.53;;
9248;SDS011;4660;41.768;26.198;2023-11-19T07:11:58;1.30;;;1.20;;
9248;SDS011;4660;41.768;26.198;2023-11-19T07:14:27;1.70;;;1.60;;
9248;SDS011;4660;41.768;26.198;2023-11-19T07:16:53;1.67;;;1.53;;
9248;SDS011;4660;41.768;26.198;2023-11-19T07:19:20;1.27;;;1.27;;
9248;SDS011;4660;41.768;26.198;2023-11-19T07:21:46;1.67;;;1.57;;
9248;SDS011;4660;41.768;26.198;2023-11-19T07:24:12;1.57;;;1.47;;
9248;SDS011;4660;41.768;26.198;2023-11-19T07:26:45;2.23;;;1.60;;
9248;SDS011;4660;41.768;26.198;2023-11-19T07:29:13;1.70;;;1.60;;
9248;SDS011;4660;41.768;26.198;2023-11-19T07:31:42;2.17;;;1.90;;
9248;SDS011;4660;41.768;26.198;2023-11-19T07:34:09;2.23;;;1.50;;
9248;SDS011;4660;41.768;26.198;2023-11-19T07:36:36;3.83;;;2.00;;
9248;SDS011;4660;41.768;26.198;2023-11-19T07:39:03;1.60;;;1.50;;
9248;SDS011;4660;41.768;26.198;2023-11-19T07:41:30;3.13;;;1.60;;
9248;SDS011;4660;41.768;26.198;2023-11-19T07:43:56;2.50;;;1.83;;
9248;SDS011;4660;41.768;26.198;2023-11-19T07:46:22;1.70;;;1.60;;
9248;SDS011;4660;41.768;26.198;2023-11-19T07:48:50;1.60;;;1.50;;
9248;SDS011;4660;41.768;26.198;2023-11-19T07:51:18;4.87;;;1.83;;
9248;SDS011;4660;41.768;26.198;2023-11-19T07:53:44;2.10;;;2.00;;
9248;SDS011;4660;41.768;26.198;2023-11-19T07:56:09;2.30;;;2.10;;
9248;SDS011;4660;41.768;26.198;2023-11-19T07:58:35;1.70;;;1.60;;
9248;SDS011;4660;41.768;26.198;2023-11-19T08:01:02;1.60;;;1.50;;
9248;SDS011;4660;41.768;26.198;2023-11-19T08:03:30;1.60;;;1.50;;
9248;SDS011;4660;41.768;26.198;2023-11-19T08:05:57;1.83;;;1.30;;
9248;SDS011;4660;41.768;26.198;2023-11-19T08:08:22;5.40;;;1.63;;
9248;SDS011;4660;41.768;26.198;2023-11-19T08:10:48;1.60;;;1.40;;
9248;SDS011;4660;41.768;26.198;2023-11-19T08:13:14;2.07;;;1.77;;
9248;SDS011;4660;41.768;26.198;2023-11-19T08:15:40;2.37;;;1.77;;
9248;SDS011;4660;41.768;26.198;2023-11-19T08:18:06;3.43;;;1.57;;
9248;SDS011;4660;41.768;26.198;2023-11-19T08:20:32;1.67;;;1.57;;
9248;SDS011;4660;41.768;26.198;2023-11-19T08:22:58;2.40;;;1.60;;
9248;SDS011;4660;41.768;26.198;2023-11-19T08:25:24;2.93;;;1.83;;
9248;SDS011;4660;41.768;26.198;2023-11-19T08:27:49;2.13;;;1.93;;
9248;SDS011;4660;41.768;26.198;2023-11-19T08:30:15;2.17;;;1.60;;
9248;SDS011;4660;41.768;26.198;2023-11-19T08:32:43;2.53;;;1.60;;
9248;SDS011;4660;41.768;26.198;2023-11-19T08:35:08;2.37;;;1.90;;
9248;SDS011;4660;41.768;26.198;2023-11-19T08:37:34;1.63;;;1.50;;
9248;SDS011;4660;41.768;26.198;2023-11-19T08:40:01;2.07;;;1.80;;
9248;SDS011;4660;41.768;26.198;2023-11-19T08:42:28;2.63;;;1.87;;
9248;SDS011;4660;41.768;26.198;2023-11-19T08:44:55;2.83;;;2.20;;
9248;SDS011;4660;41.768;26.198;2023-11-19T08:47:21;2.40;;;2.20;;
9248;SDS011;4660;41.768;26.198;2023-11-19T08:49:50;2.73;;;2.10;;
9248;SDS011;4660;41.768;26.198;2023-11-19T08:52:20;1.83;;;1.67;;
9248;SDS011;4660;41.768;26.198;2023-11-19T08:54:46;2.30;;;2.10;;
9248;SDS011;4660;41.768;26.198;2023-11-19T08:57:11;2.50;;;2.13;;
9248;SDS011;4660;41.768;26.198;2023-11-19T08:59:37;1.73;;;1.63;;
9248;SDS011;4660;41.768;26.198;2023-11-19T09:02:05;1.60;;;1.40;;
9248;SDS011;4660;41.768;26.198;2023-11-19T09:04:34;1.50;;;1.27;;
9248;SDS011;4660;41.768;26.198;2023-11-19T09:07:01;2.47;;;1.20;;
9248;SDS011;4660;41.768;26.198;2023-11-19T09:09:26;4.07;;;1.87;;
9248;SDS011;4660;41.768;26.198;2023-11-19T09:11:52;4.53;;;1.50;;
9248;SDS011;4660;41.768;26.198;2023-11-19T09:14:18;1.63;;;1.50;;
9248;SDS011;4660;41.768;26.198;2023-11-19T09:16:51;1.40;;;1.30;;
9248;SDS011;4660;41.768;26.198;2023-11-19T09:19:17;1.27;;;1.17;;
9248;SDS011;4660;41.768;26.198;2023-11-19T09:21:44;1.70;;;1.60;;
9248;SDS011;4660;41.768;26.198;2023-11-19T09:24:11;3.23;;;1.83;;
9248;SDS011;4660;41.768;26.198;2023-11-19T09:26:36;1.47;;;1.27;;
9248;SDS011;4660;41.768;26.198;2023-11-19T09:29:04;2.40;;;1.63;;
9248;SDS011;4660;41.768;26.198;2023-11-19T09:31:30;1.97;;;1.40;;
9248;SDS011;4660;41.768;26.198;2023-11-19T09:33:55;2.30;;;1.60;;
9248;SDS011;4660;41.768;26.198;2023-11-19T09:36:21;2.57;;;1.67;;
9248;SDS011;4660;41.768;26.198;2023-11-19T09:38:47;1.80;;;1.70;;
9248;SDS011;4660;41.768;26.198;2023-11-19T09:41:12;2.27;;;1.77;;
9248;SDS011;4660;41.768;26.198;2023-11-19T09:43:39;1.90;;;1.40;;
9248;SDS011;4660;41.768;26.198;2023-11-19T09:46:06;2.17;;;1.27;;
9248;SDS011;4660;41.768;26.198;2023-11-19T09:48:37;1.50;;;1.30;;
9248;SDS011;4660;41.768;26.198;2023-11-19T09:51:04;1.43;;;1.33;;
9248;SDS011;4660;41.768;26.198;2023-11-19T09:53:32;1.40;;;1.30;;
9248;SDS011;4660;41.768;26.198;2023-11-19T09:56:03;1.40;;;1.30;;
9248;SDS011;4660;41.768;26.198;2023-11-19T09:58:33;1.33;;;1.23;;
9248;SDS011;4660;41.768;26.198;2023-11-19T10:01:00;1.80;;;1.70;;
9248;SDS011;4660;41.768;26.198;2023-11-19T10:03:30;3.43;;;1.70;;
9248;SDS011;4660;41.768;26.198;2023-11-19T10:05:58;1.83;;;1.55;;
9248;SDS011;4660;41.768;26.198;2023-11-19T10:08:26;1.60;;;1.30;;
9248;SDS011;4660;41.768;26.198;2023-11-19T10:10:53;1.87;;;1.70;;
9248;SDS011;4660;41.768;26.198;2023-11-19T10:13:19;1.50;;;1.23;;
9248;SDS011;4660;41.768;26.198;2023-11-19T10:15:44;1.83;;;1.63;;
9248;SDS011;4660;41.768;26.198;2023-11-19T10:18:14;1.43;;;1.33;;
9248;SDS011;4660;41.768;26.198;2023-11-19T10:20:41;1.40;;;1.30;;
9248;SDS011;4660;41.768;26.198;2023-11-19T10:23:09;1.07;;;1.07;;
9248;SDS011;4660;41.768;26.198;2023-11-19T10:25:35;1.63;;;1.53;;
9248;SDS011;4660;41.768;26.198;2023-11-19T10:28:02;1.90;;;1.63;;
9248;SDS011;4660;41.768;26.198;2023-11-19T10:30:29;1.93;;;1.60;;
9248;SDS011;4660;41.768;26.198;2023-11-19T10:35:34;2.13;;;1.70;;
9248;SDS011;4660;41.768;26.198;2023-11-19T10:38:01;1.70;;;1.60;;
9248;SDS011;4660;41.768;26.198;2023-11-19T10:40:40;16.93;;;2.10;;
9248;SDS011;4660;41.768;26.198;2023-11-19T10:43:08;2.30;;;2.03;;
9248;SDS011;4660;41.768;26.198;2023-11-19T10:45:34;1.90;;;1.63;;
9248;SDS011;4660;41.768;26.198;2023-11-19T10:48:03;2.33;;;1.77;;
9248;SDS011;4660;41.768;26.198;2023-11-19T10:50:38;1.87;;;1.70;;
9248;SDS011;4660;41.768;26.198;2023-11-19T10:53:06;1.67;;;1.57;;
9248;SDS011;4660;41.768;26.198;2023-11-19T10:55:37;2.13;;;1.70;;
9248;SDS011;4660;41.768;26.198;2023-11-19T10:58:04;2.20;;;2.00;;
9248;SDS011;4660;41.768;26.198;2023-11-19T11:03:24;1.63;;;1.50;;
9248;SDS011;4660;41.768;26.198;2023-11-19T11:05:53;4.83;;;3.60;;
9248;SDS011;4660;41.768;26.198;2023-11-19T11:08:19;2.87;;;1.90;;
9248;SDS011;4660;41.768;26.198;2023-11-19T11:10:56;1.43;;;1.30;;
9248;SDS011;4660;41.768;26.198;2023-11-19T11:13:23;3.00;;;2.07;;
9248;SDS011;4660;41.768;26.198;2023-11-19T11:16:07;2.00;;;1.90;;
9248;SDS011;4660;41.768;26.198;2023-11-19T11:18:33;1.63;;;1.53;;
9248;SDS011;4660;41.768;26.198;2023-11-19T11:21:00;3.03;;;1.60;;
9248;SDS011;4660;41.768;26.198;2023-11-19T11:39:55;1.67;;;1.57;;
9248;SDS011;4660;41.768;26.198;2023-11-19T11:45:08;2.10;;;1.80;;
9248;SDS011;4660;41.768;26.198;2023-11-19T11:50:15;2.80;;;1.90;;
9248;SDS011;4660;41.768;26.198;2023-11-19T11:55:26;5.90;;;1.97;;
9248;SDS011;4660;41.768;26.198;2023-11-19T11:58:05;1.50;;;1.40;;
9248;SDS011;4660;41.768;26.198;2023-11-19T12:00:40;1.73;;;1.57;;
9248;SDS011;4660;41.768;26.198;2023-11-19T12:03:19;1.33;;;1.23;;
9248;SDS011;4660;41.768;26.198;2023-11-19T12:05:48;1.90;;;1.70;;
9248;SDS011;4660;41.768;26.198;2023-11-19T12:08:16;2.10;;;1.60;;
9248;SDS011;4660;41.768;26.198;2023-11-19T12:10:46;1.60;;;1.50;;
9248;SDS011;4660;41.768;26.198;2023-11-19T12:13:14;2.47;;;1.35;;
9248;SDS011;4660;41.768;26.198;2023-11-19T12:18:27;2.00;;;1.73;;
9248;SDS011;4660;41.768;26.198;2023-11-19T12:20:58;2.30;;;2.10;;
9248;SDS011;4660;41.768;26.198;2023-11-19T12:23:31;3.20;;;2.00;;
9248;SDS011;4660;41.768;26.198;2023-11-19T12:25:59;1.90;;;1.60;;
9248;SDS011;4660;41.768;26.198;2023-11-19T12:28:26;2.10;;;1.90;;
9248;SDS011;4660;41.768;26.198;2023-11-19T12:30:52;3.00;;;2.33;;
9248;SDS011;4660;41.768;26.198;2023-11-19T12:33:19;1.97;;;1.60;;
9248;SDS011;4660;41.768;26.198;2023-11-19T12:35:45;1.80;;;1.50;;
9248;SDS011;4660;41.768;26.198;2023-11-19T12:38:22;2.47;;;1.60;;
9248;SDS011;4660;41.768;26.198;2023-11-19T12:41:04;2.37;;;1.90;;
9248;SDS011;4660;41.768;26.198;2023-11-19T12:43:38;1.93;;;1.50;;
9248;SDS011;4660;41.768;26.198;2023-11-19T12:46:24;1.50;;;1.40;;
9248;SDS011;4660;41.768;26.198;2023-11-19T12:48:52;2.43;;;1.40;;
9248;SDS011;4660;41.768;26.198;2023-11-19T12:51:18;1.83;;;1.73;;
9248;SDS011;4660;41.768;26.198;2023-11-19T12:53:48;1.77;;;1.60;;
9248;SDS011;4660;41.768;26.198;2023-11-19T12:56:16;1.70;;;1.60;;
9248;SDS011;4660;41.768;26.198;2023-11-19T12:58:41;2.10;;;1.60;;
9248;SDS011;4660;41.768;26.198;2023-11-19T13:01:09;2.73;;;1.50;;
9248;SDS011;4660;41.768;26.198;2023-11-19T13:03:40;1.70;;;1.60;;
9248;SDS011;4660;41.768;26.198;2023-11-19T13:06:06;2.07;;;1.67;;
9248;SDS011;4660;41.768;26.198;2023-11-19T13:08:47;2.03;;;1.90;;
9248;SDS011;4660;41.768;26.198;2023-11-19T13:11:17;1.97;;;1.87;;
9248;SDS011;4660;41.768;26.198;2023-11-19T13:14:01;4.13;;;1.60;;
9248;SDS011;4660;41.768;26.198;2023-11-19T13:16:29;1.73;;;1.60;;
9248;SDS011;4660;41.768;26.198;2023-11-19T13:18:56;1.70;;;1.40;;
9248;SDS011;4660;41.768;26.198;2023-11-19T13:21:25;1.67;;;1.53;;
9248;SDS011;4660;41.768;26.198;2023-11-19T13:23:51;1.53;;;1.43;;
9248;SDS011;4660;41.768;26.198;2023-11-19T13:26:19;1.70;;;1.60;;
9248;SDS011;4660;41.768;26.198;2023-11-19T13:28:44;2.67;;;1.50;;
9248;SDS011;4660;41.768;26.198;2023-11-19T13:31:10;2.00;;;1.80;;
9248;SDS011;4660;41.768;26.198;2023-11-19T13:33:35;2.50;;;1.67;;
9248;SDS011;4660;41.768;26.198;2023-11-19T13:36:02;4.40;;;1.60;;
9248;SDS011;4660;41.768;26.198;2023-11-19T13:38:34;2.53;;;1.80;;
9248;SDS011;4660;41.768;26.198;2023-11-19T13:41:00;1.77;;;1.67;;
9248;SDS011;4660;41.768;26.198;2023-11-19T13:43:29;2.40;;;2.17;;
9248;SDS011;4660;41.768;26.198;2023-11-19T13:45:56;1.90;;;1.80;;
9248;SDS011;4660;41.768;26.198;2023-11-19T13:48:23;2.10;;;1.70;;
9248;SDS011;4660;41.768;26.198;2023-11-19T13:50:49;3.50;;;2.10;;
9248;SDS011;4660;41.768;26.198;2023-11-19T13:53:16;1.77;;;1.57;;
9248;SDS011;4660;41.768;26.198;2023-11-19T13:55:42;2.17;;;1.80;;
9248;SDS011;4660;41.768;26.198;2023-11-19T13:58:17;1.63;;;1.53;;
9248;SDS011;4660;41.768;26.198;2023-11-19T14:00:43;1.90;;;1.70;;
9248;SDS011;4660;41.768;26.198;2023-11-19T14:03:10;4.53;;;1.90;;
9248;SDS011;4660;41.768;26.198;2023-11-19T14:05:48;1.70;;;1.60;;
9248;SDS011;4660;41.768;26.198;2023-11-19T14:08:17;2.00;;;1.77;;
9248;SDS011;4660;41.768;26.198;2023-11-19T14:10:44;2.00;;;1.70;;
9248;SDS011;4660;41.768;26.198;2023-11-19T14:13:10;2.20;;;2.00;;
9248;SDS011;4660;41.768;26.198;2023-11-19T14:15:37;2.07;;;1.87;;
9248;SDS011;4660;41.768;26.198;2023-11-19T14:18:03;2.65;;;2.00;;
9248;SDS011;4660;41.768;26.198;2023-11-19T14:20:34;2.23;;;1.97;;
9248;SDS011;4660;41.768;26.198;2023-11-19T14:23:04;2.10;;;1.90;;
9248;SDS011;4660;41.768;26.198;2023-11-19T14:25:29;2.83;;;1.83;;
9248;SDS011;4660;41.768;26.198;2023-11-19T14:28:02;2.60;;;2.07;;
9248;SDS011;4660;41.768;26.198;2023-11-19T14:30:43;2.67;;;2.13;;
9248;SDS011;4660;41.768;26.198;2023-11-19T14:33:14;2.30;;;2.10;;
9248;SDS011;4660;41.768;26.198;2023-11-19T14:35:42;1.80;;;1.70;;
9248;SDS011;4660;41.768;26.198;2023-11-19T14:38:13;2.80;;;2.13;;
9248;SDS011;4660;41.768;26.198;2023-11-19T14:40:40;4.97;;;1.80;;
9248;SDS011;4660;41.768;26.198;2023-11-19T14:43:10;3.90;;;2.13;;
9248;SDS011;4660;41.768;26.198;2023-11-19T14:45:41;3.33;;;2.30;;
9248;SDS011;4660;41.768;26.198;2023-11-19T14:48:07;2.83;;;2.27;;
9248;SDS011;4660;41.768;26.198;2023-11-19T14:50:33;2.80;;;2.50;;
9248;SDS011;4660;41.768;26.198;2023-11-19T14:53:00;3.77;;;2.60;;
9248;SDS011;4660;41.768;26.198;2023-11-19T14:55:26;5.20;;;2.40;;
9248;SDS011;4660;41.768;26.198;2023-11-19T14:57:54;3.20;;;2.50;;
9248;SDS011;4660;41.768;26.198;2023-11-19T15:00:25;3.63;;;2.67;;
9248;SDS011;4660;41.768;26.198;2023-11-19T15:03:01;2.70;;;2.50;;
9248;SDS011;4660;41.768;26.198;2023-11-19T15:05:28;3.07;;;2.43;;
9248;SDS011;4660;41.768;26.198;2023-11-19T15:08:00;3.70;;;2.30;;
9248;SDS011;4660;41.768;26.198;2023-11-19T15:10:26;3.73;;;3.10;;
9248;SDS011;4660;41.768;26.198;2023-11-19T15:12:54;22.93;;;14.97;;
9248;SDS011;4660;41.768;26.198;2023-11-19T15:15:20;8.90;;;5.33;;
9248;SDS011;4660;41.768;26.198;2023-11-19T15:17:49;6.57;;;5.10;;
9248;SDS011;4660;41.768;26.198;2023-11-19T15:20:16;7.40;;;4.20;;
9248;SDS011;4660;41.768;26.198;2023-11-19T15:22:46;4.00;;;3.33;;
9248;SDS011;4660;41.768;26.198;2023-11-19T15:25:35;4.90;;;3.27;;
9248;SDS011;4660;41.768;26.198;2023-11-19T15:28:26;3.20;;;2.80;;
9248;SDS011;4660;41.768;26.198;2023-11-19T15:31:00;3.83;;;3.00;;
9248;SDS011;4660;41.768;26.198;2023-11-19T15:33:33;5.43;;;3.93;;
9248;SDS011;4660;41.768;26.198;2023-11-19T15:36:22;8.87;;;6.00;;